sensor_id;sensor_type;location;lat;lon;timestamp;pressure;altitude;pressure_sealevel;temperature;humidity
36692;BME280;22678;52.052;4.242;2022-11-06T00:00:04;101323.13;;;10.92;88.12
36692;BME280;22678;52.052;4.242;2022-11-06T00:02:30;101311.75;;;10.87;88.03
36692;BME280;22678;52.052;4.242;2022-11-06T00:04:55;101290.72;;;10.84;88.34
36692;BME280;22678;52.052;4.242;2022-11-06T00:07:44;101303.88;;;10.89;88.06
36692;BME280;22678;52.052;4.242;2022-11-06T00:10:10;101298.59;;;10.85;88.05
36692;BME280;22678;52.052;4.242;2022-11-06T00:12:35;101291.59;;;10.84;88.33
36692;BME280;22678;52.052;4.242;2022-11-06T00:15:00;101314.38;;;10.93;88.09
36692;BME280;22678;52.052;4.242;2022-11-06T00:17:26;101308.22;;;10.97;88.38
36692;BME280;22678;52.052;4.242;2022-11-06T00:19:51;101288.94;;;10.91;88.25
36692;BME280;22678;52.052;4.242;2022-11-06T00:22:16;101300.34;;;10.94;88.29
36692;BME280;22678;52.052;4.242;2022-11-06T00:24:41;101299.47;;;10.98;88.49
36692;BME280;22678;52.052;4.242;2022-11-06T00:27:07;101295.94;;;10.99;88.50
36692;BME280;22678;52.052;4.242;2022-11-06T00:29:32;101309.09;;;11.01;88.61
36692;BME280;22678;52.052;4.242;2022-11-06T00:31:57;101296.81;;;11.00;88.69
36692;BME280;22678;52.052;4.242;2022-11-06T00:34:22;101298.56;;;10.98;88.79
36692;BME280;22678;52.052;4.242;2022-11-06T00:36:48;101276.66;;;10.85;89.01
36692;BME280;22678;52.052;4.242;2022-11-06T00:39:13;101301.19;;;10.98;89.03
36692;BME280;22678;52.052;4.242;2022-11-06T00:41:39;101302.09;;;10.89;89.43
36692;BME280;22678;52.052;4.242;2022-11-06T00:44:04;101286.31;;;10.89;89.48
36692;BME280;22678;52.052;4.242;2022-11-06T00:46:30;101297.72;;;10.93;89.60
36692;BME280;22678;52.052;4.242;2022-11-06T00:48:55;101280.22;;;10.78;89.96
36692;BME280;22678;52.052;4.242;2022-11-06T00:51:24;101300.38;;;10.90;90.20
36692;BME280;22678;52.052;4.242;2022-11-06T00:53:54;101297.72;;;10.82;90.51
36692;BME280;22678;52.052;4.242;2022-11-06T00:56:20;101285.47;;;10.76;90.96
36692;BME280;22678;52.052;4.242;2022-11-06T00:58:46;101288.97;;;10.83;91.10
36692;BME280;22678;52.052;4.242;2022-11-06T01:01:15;101304.75;;;10.83;91.45
36692;BME280;22678;52.052;4.242;2022-11-06T01:03:43;101296.00;;;10.81;91.52
36692;BME280;22678;52.052;4.242;2022-11-06T01:06:11;101301.25;;;10.81;91.87
36692;BME280;22678;52.052;4.242;2022-11-06T01:08:37;101288.97;;;10.77;92.34
36692;BME280;22678;52.052;4.242;2022-11-06T01:11:12;101299.50;;;10.77;92.48
36692;BME280;22678;52.052;4.242;2022-11-06T01:13:38;101287.25;;;10.66;92.65
36692;BME280;22678;52.052;4.242;2022-11-06T01:16:05;101291.63;;;10.74;92.87
36692;BME280;22678;52.052;4.242;2022-11-06T01:18:31;101282.84;;;10.67;93.05
36692;BME280;22678;52.052;4.242;2022-11-06T01:20:56;101278.47;;;10.71;93.49
36692;BME280;22678;52.052;4.242;2022-11-06T01:23:22;101274.09;;;10.63;93.88
36692;BME280;22678;52.052;4.242;2022-11-06T01:26:04;101281.13;;;10.67;93.96
36692;BME280;22678;52.052;4.242;2022-11-06T01:28:30;101270.56;;;10.61;94.07
36692;BME280;22678;52.052;4.242;2022-11-06T01:30:55;101291.63;;;10.69;94.33
36692;BME280;22678;52.052;4.242;2022-11-06T01:33:21;101262.69;;;10.60;94.68
36692;BME280;22678;52.052;4.242;2022-11-06T01:35:49;101269.72;;;10.62;95.13
36692;BME280;22678;52.052;4.242;2022-11-06T01:38:15;101274.09;;;10.65;95.07
36692;BME280;22678;52.052;4.242;2022-11-06T01:40:43;101271.47;;;10.63;95.28
36692;BME280;22678;52.052;4.242;2022-11-06T01:43:22;101280.22;;;10.62;95.51
36692;BME280;22678;52.052;4.242;2022-11-06T01:45:50;101272.34;;;10.59;95.82
36692;BME280;22678;52.052;4.242;2022-11-06T01:48:25;101276.75;;;10.60;95.92
36692;BME280;22678;52.052;4.242;2022-11-06T01:50:55;101253.97;;;10.50;96.20
36692;BME280;22678;52.052;4.242;2022-11-06T01:53:22;101263.59;;;10.48;96.48
36692;BME280;22678;52.052;4.242;2022-11-06T01:55:51;101266.22;;;10.54;96.51
36692;BME280;22678;52.052;4.242;2022-11-06T01:58:20;101266.19;;;10.51;96.69
36692;BME280;22678;52.052;4.242;2022-11-06T02:00:47;101266.19;;;10.51;97.17
36692;BME280;22678;52.052;4.242;2022-11-06T02:03:13;101266.22;;;10.54;97.02
36692;BME280;22678;52.052;4.242;2022-11-06T02:05:40;101255.69;;;10.48;97.42
36692;BME280;22678;52.052;4.242;2022-11-06T02:08:07;101262.69;;;10.55;97.48
36692;BME280;22678;52.052;4.242;2022-11-06T02:10:33;101263.59;;;10.57;97.64
36692;BME280;22678;52.052;4.242;2022-11-06T02:13:04;101261.84;;;10.56;97.76
36692;BME280;22678;52.052;4.242;2022-11-06T02:15:43;101257.44;;;10.55;97.69
36692;BME280;22678;52.052;4.242;2022-11-06T02:20:40;101241.66;;;10.55;97.86
36692;BME280;22678;52.052;4.242;2022-11-06T02:23:49;101228.53;;;10.52;98.22
36692;BME280;22678;52.052;4.242;2022-11-06T02:29:30;101252.19;;;10.55;98.16
36692;BME280;22678;52.052;4.242;2022-11-06T02:31:59;101248.69;;;10.50;98.28
36692;BME280;22678;52.052;4.242;2022-11-06T02:34:28;101250.44;;;10.57;98.30
36692;BME280;22678;52.052;4.242;2022-11-06T02:37:00;101238.19;;;10.50;98.46
36692;BME280;22678;52.052;4.242;2022-11-06T02:39:29;101226.75;;;10.52;98.44
36692;BME280;22678;52.052;4.242;2022-11-06T02:41:57;101239.91;;;10.60;98.79
36692;BME280;22678;52.052;4.242;2022-11-06T02:44:27;101240.78;;;10.58;98.62
36692;BME280;22678;52.052;4.242;2022-11-06T02:47:00;101224.16;;;10.57;98.87
36692;BME280;22678;52.052;4.242;2022-11-06T02:49:52;101224.16;;;10.54;98.94
36692;BME280;22678;52.052;4.242;2022-11-06T02:52:32;101224.16;;;10.57;98.77
36692;BME280;22678;52.052;4.242;2022-11-06T02:55:08;101242.53;;;10.62;98.91
36692;BME280;22678;52.052;4.242;2022-11-06T02:57:37;101225.03;;;10.48;98.99
36692;BME280;22678;52.052;4.242;2022-11-06T03:00:07;101232.88;;;10.62;99.25
36692;BME280;22678;52.052;4.242;2022-11-06T03:02:40;101218.88;;;10.57;99.23
36692;BME280;22678;52.052;4.242;2022-11-06T03:05:19;101211.84;;;10.59;99.48
36692;BME280;22678;52.052;4.242;2022-11-06T03:07:56;101212.72;;;10.60;99.21
36692;BME280;22678;52.052;4.242;2022-11-06T03:10:39;101195.22;;;10.57;99.26
36692;BME280;22678;52.052;4.242;2022-11-06T03:13:16;101205.72;;;10.62;99.37
36692;BME280;22678;52.052;4.242;2022-11-06T03:18:23;101205.72;;;10.65;99.50
36692;BME280;22678;52.052;4.242;2022-11-06T03:21:01;101176.81;;;10.57;99.40
36692;BME280;22678;52.052;4.242;2022-11-06T03:23:42;101193.44;;;10.64;99.57
36692;BME280;22678;52.052;4.242;2022-11-06T03:26:14;101179.44;;;10.51;99.46
36692;BME280;22678;52.052;4.242;2022-11-06T03:31:35;101178.53;;;10.61;99.84
36692;BME280;22678;52.052;4.242;2022-11-06T03:34:08;101182.06;;;10.62;99.65
36692;BME280;22678;52.052;4.242;2022-11-06T03:36:39;101173.28;;;10.57;99.80
36692;BME280;22678;52.052;4.242;2022-11-06T03:39:11;101177.66;;;10.58;99.70
36692;BME280;22678;52.052;4.242;2022-11-06T03:41:43;101176.78;;;10.66;99.75
36692;BME280;22678;52.052;4.242;2022-11-06T03:44:14;101162.75;;;10.61;99.88
36692;BME280;22678;52.052;4.242;2022-11-06T03:46:46;101153.13;;;10.59;99.86
36692;BME280;22678;52.052;4.242;2022-11-06T03:49:16;101153.13;;;10.60;99.92
36692;BME280;22678;52.052;4.242;2022-11-06T03:51:48;101160.97;;;10.69;99.86
36692;BME280;22678;52.052;4.242;2022-11-06T03:54:28;101161.84;;;10.70;99.92
36692;BME280;22678;52.052;4.242;2022-11-06T03:57:19;101150.47;;;10.66;99.92
36692;BME280;22678;52.052;4.242;2022-11-06T03:59:50;101146.09;;;10.64;99.72
36692;BME280;22678;52.052;4.242;2022-11-06T04:02:18;101146.06;;;10.70;99.71
36692;BME280;22678;52.052;4.242;2022-11-06T04:04:52;101129.44;;;10.65;99.90
36692;BME280;22678;52.052;4.242;2022-11-06T04:07:21;101137.31;;;10.68;99.65
36692;BME280;22678;52.052;4.242;2022-11-06T04:09:55;101136.44;;;10.71;99.75
36692;BME280;22678;52.052;4.242;2022-11-06T04:12:42;101118.03;;;10.64;99.95
36692;BME280;22678;52.052;4.242;2022-11-06T04:15:30;101121.50;;;10.71;99.69
36692;BME280;22678;52.052;4.242;2022-11-06T04:17:57;101110.13;;;10.64;99.63
36692;BME280;22678;52.052;4.242;2022-11-06T04:20:23;101117.13;;;10.68;99.80
36692;BME280;22678;52.052;4.242;2022-11-06T04:23:19;101134.66;;;10.73;99.74
36692;BME280;22678;52.052;4.242;2022-11-06T04:28:42;101137.28;;;10.71;99.90
36692;BME280;22678;52.052;4.242;2022-11-06T04:31:44;101133.81;;;10.67;99.79
36692;BME280;22678;52.052;4.242;2022-11-06T04:35:19;101105.78;;;10.62;99.90
36692;BME280;22678;52.052;4.242;2022-11-06T04:37:27;101118.88;;;10.69;99.78
36692;BME280;22678;52.052;4.242;2022-11-06T04:42:53;101118.03;;;10.69;100.00
36692;BME280;22678;52.052;4.242;2022-11-06T04:45:24;101117.16;;;10.62;100.00
36692;BME280;22678;52.052;4.242;2022-11-06T04:47:52;101118.91;;;10.66;100.00
36692;BME280;22678;52.052;4.242;2022-11-06T04:50:21;101124.16;;;10.66;100.00
36692;BME280;22678;52.052;4.242;2022-11-06T04:52:48;101124.16;;;10.66;100.00
36692;BME280;22678;52.052;4.242;2022-11-06T04:55:15;101120.66;;;10.64;100.00
36692;BME280;22678;52.052;4.242;2022-11-06T04:57:40;101120.66;;;10.64;100.00
36692;BME280;22678;52.052;4.242;2022-11-06T05:00:06;101109.25;;;10.67;100.00
36692;BME280;22678;52.052;4.242;2022-11-06T05:02:31;101098.75;;;10.65;100.00
36692;BME280;22678;52.052;4.242;2022-11-06T05:04:57;101085.63;;;10.59;100.00
36692;BME280;22678;52.052;4.242;2022-11-06T05:07:22;101098.72;;;10.67;100.00
36692;BME280;22678;52.052;4.242;2022-11-06T05:09:48;101083.00;;;10.58;100.00
36692;BME280;22678;52.052;4.242;2022-11-06T05:12:13;101091.75;;;10.58;100.00
36692;BME280;22678;52.052;4.242;2022-11-06T05:14:38;101066.38;;;10.48;100.00
36692;BME280;22678;52.052;4.242;2022-11-06T05:17:04;101092.63;;;10.63;100.00
36692;BME280;22678;52.052;4.242;2022-11-06T05:19:29;101061.13;;;10.48;100.00
36692;BME280;22678;52.052;4.242;2022-11-06T05:21:54;101069.00;;;10.57;100.00
36692;BME280;22678;52.052;4.242;2022-11-06T05:24:38;101064.59;;;10.56;100.00
36692;BME280;22678;52.052;4.242;2022-11-06T05:27:03;101075.09;;;10.62;100.00
36692;BME280;22678;52.052;4.242;2022-11-06T05:29:29;101062.81;;;10.58;100.00
36692;BME280;22678;52.052;4.242;2022-11-06T05:31:54;101072.47;;;10.62;100.00
36692;BME280;22678;52.052;4.242;2022-11-06T05:34:20;101073.34;;;10.58;100.00
36692;BME280;22678;52.052;4.242;2022-11-06T05:36:45;101055.84;;;10.54;100.00
36692;BME280;22678;52.052;4.242;2022-11-06T05:39:11;101047.94;;;10.52;100.00
36692;BME280;22678;52.052;4.242;2022-11-06T05:41:36;101060.19;;;10.60;100.00
36692;BME280;22678;52.052;4.242;2022-11-06T05:44:02;101052.31;;;10.55;100.00
36692;BME280;22678;52.052;4.242;2022-11-06T05:46:27;101053.22;;;10.54;100.00
36692;BME280;22678;52.052;4.242;2022-11-06T05:48:52;101051.44;;;10.59;100.00
36692;BME280;22678;52.052;4.242;2022-11-06T05:51:18;101052.31;;;10.55;100.00
36692;BME280;22678;52.052;4.242;2022-11-06T05:53:44;101039.19;;;10.52;100.00
36692;BME280;22678;52.052;4.242;2022-11-06T05:56:09;101051.44;;;10.58;100.00
36692;BME280;22678;52.052;4.242;2022-11-06T05:58:34;101030.44;;;10.53;100.00
36692;BME280;22678;52.052;4.242;2022-11-06T06:01:00;101021.69;;;10.45;100.00
36692;BME280;22678;52.052;4.242;2022-11-06T06:03:25;101026.09;;;10.44;100.00
36692;BME280;22678;52.052;4.242;2022-11-06T06:05:50;101026.94;;;10.48;100.00
36692;BME280;22678;52.052;4.242;2022-11-06T06:08:16;101026.94;;;10.46;100.00
36692;BME280;22678;52.052;4.242;2022-11-06T06:10:42;101036.56;;;10.52;100.00
36692;BME280;22678;52.052;4.242;2022-11-06T06:13:08;101023.44;;;10.47;100.00
36692;BME280;22678;52.052;4.242;2022-11-06T06:15:33;101008.56;;;10.42;100.00
36692;BME280;22678;52.052;4.242;2022-11-06T06:17:58;101022.59;;;10.47;100.00
36692;BME280;22678;52.052;4.242;2022-11-06T06:20:24;101019.06;;;10.43;100.00
36692;BME280;22678;52.052;4.242;2022-11-06T06:22:53;101032.19;;;10.48;100.00
36692;BME280;22678;52.052;4.242;2022-11-06T06:25:19;101014.72;;;10.36;100.00
36692;BME280;22678;52.052;4.242;2022-11-06T06:27:44;101017.34;;;10.39;100.00
36692;BME280;22678;52.052;4.242;2022-11-06T06:30:10;101024.31;;;10.45;100.00
36692;BME280;22678;52.052;4.242;2022-11-06T06:32:35;101013.84;;;10.40;100.00
36692;BME280;22678;52.052;4.242;2022-11-06T06:35:01;101001.56;;;10.38;100.00
36692;BME280;22678;52.052;4.242;2022-11-06T06:37:26;100999.84;;;10.37;100.00
36692;BME280;22678;52.052;4.242;2022-11-06T06:39:51;100999.81;;;10.40;100.00
36692;BME280;22678;52.052;4.242;2022-11-06T06:42:16;101006.84;;;10.38;100.00
36692;BME280;22678;52.052;4.242;2022-11-06T06:44:42;100999.84;;;10.38;100.00
36692;BME280;22678;52.052;4.242;2022-11-06T06:47:07;100983.19;;;10.28;100.00
36692;BME280;22678;52.052;4.242;2022-11-06T06:49:32;100999.81;;;10.43;100.00
36692;BME280;22678;52.052;4.242;2022-11-06T06:51:57;100998.94;;;10.39;100.00
36692;BME280;22678;52.052;4.242;2022-11-06T06:54:23;101003.31;;;10.42;100.00
36692;BME280;22678;52.052;4.242;2022-11-06T06:56:48;100977.03;;;10.32;100.00
36692;BME280;22678;52.052;4.242;2022-11-06T06:59:13;100993.66;;;10.45;100.00
36692;BME280;22678;52.052;4.242;2022-11-06T07:01:38;100987.56;;;10.39;100.00
36692;BME280;22678;52.052;4.242;2022-11-06T07:04:04;100994.56;;;10.40;100.00
36692;BME280;22678;52.052;4.242;2022-11-06T07:06:29;100984.06;;;10.40;100.00
36692;BME280;22678;52.052;4.242;2022-11-06T07:08:55;101003.28;;;10.48;100.00
36692;BME280;22678;52.052;4.242;2022-11-06T07:11:20;101012.94;;;10.44;100.00
36692;BME280;22678;52.052;4.242;2022-11-06T07:13:47;100989.34;;;10.37;100.00
36692;BME280;22678;52.052;4.242;2022-11-06T07:16:12;100989.31;;;10.40;100.00
36692;BME280;22678;52.052;4.242;2022-11-06T07:18:39;100998.91;;;10.47;100.00
36692;BME280;22678;52.052;4.242;2022-11-06T07:21:10;100989.28;;;10.43;100.00
36692;BME280;22678;52.052;4.242;2022-11-06T07:23:35;101004.19;;;10.42;100.00
36692;BME280;22678;52.052;4.242;2022-11-06T07:26:02;101006.81;;;10.47;100.00
36692;BME280;22678;52.052;4.242;2022-11-06T07:28:28;100989.34;;;10.37;100.00
36692;BME280;22678;52.052;4.242;2022-11-06T07:31:00;101000.69;;;10.40;100.00
36692;BME280;22678;52.052;4.242;2022-11-06T07:33:26;100980.53;;;10.31;100.00
36692;BME280;22678;52.052;4.242;2022-11-06T07:35:51;101006.81;;;10.47;100.00
36692;BME280;22678;52.052;4.242;2022-11-06T07:38:17;101012.94;;;10.46;100.00
36692;BME280;22678;52.052;4.242;2022-11-06T07:40:42;100999.88;;;10.33;100.00
36692;BME280;22678;52.052;4.242;2022-11-06T07:43:09;101022.59;;;10.47;100.00
36692;BME280;22678;52.052;4.242;2022-11-06T07:45:36;101033.09;;;10.47;100.00
36692;BME280;22678;52.052;4.242;2022-11-06T07:48:02;101017.31;;;10.41;100.00
36692;BME280;22678;52.052;4.242;2022-11-06T07:50:28;101015.59;;;10.43;100.00
36692;BME280;22678;52.052;4.242;2022-11-06T07:52:54;101017.31;;;10.47;100.00
36692;BME280;22678;52.052;4.242;2022-11-06T07:55:19;101001.59;;;10.34;100.00
36692;BME280;22678;52.052;4.242;2022-11-06T07:57:45;101012.94;;;10.46;100.00
36692;BME280;22678;52.052;4.242;2022-11-06T08:00:11;101013.81;;;10.46;100.00
36692;BME280;22678;52.052;4.242;2022-11-06T08:02:36;101000.66;;;10.43;100.00
36692;BME280;22678;52.052;4.242;2022-11-06T08:05:02;101015.53;;;10.49;100.00
36692;BME280;22678;52.052;4.242;2022-11-06T08:07:27;101002.41;;;10.50;100.00
36692;BME280;22678;52.052;4.242;2022-11-06T08:09:53;100988.41;;;10.44;100.00
36692;BME280;22678;52.052;4.242;2022-11-06T08:12:18;100976.19;;;10.37;100.00
36692;BME280;22678;52.052;4.242;2022-11-06T08:14:43;100986.66;;;10.44;100.00
36692;BME280;22678;52.052;4.242;2022-11-06T08:17:09;100985.78;;;10.47;100.00
36692;BME280;22678;52.052;4.242;2022-11-06T08:19:34;100985.75;;;10.51;100.00
36692;BME280;22678;52.052;4.242;2022-11-06T08:21:59;100990.13;;;10.49;100.00
36692;BME280;22678;52.052;4.242;2022-11-06T08:24:25;100967.38;;;10.44;100.00
36692;BME280;22678;52.052;4.242;2022-11-06T08:26:50;100969.97;;;10.50;100.00
36692;BME280;22678;52.052;4.242;2022-11-06T08:29:16;100979.56;;;10.52;100.00
36692;BME280;22678;52.052;4.242;2022-11-06T08:31:41;100978.72;;;10.54;100.00
36692;BME280;22678;52.052;4.242;2022-11-06T08:34:07;100959.44;;;10.55;100.00
36692;BME280;22678;52.052;4.242;2022-11-06T08:36:37;100955.06;;;10.52;100.00
36692;BME280;22678;52.052;4.242;2022-11-06T08:39:03;100958.56;;;10.54;100.00
36692;BME280;22678;52.052;4.242;2022-11-06T08:41:28;100961.16;;;10.57;100.00
36692;BME280;22678;52.052;4.242;2022-11-06T08:43:54;100948.03;;;10.49;100.00
36692;BME280;22678;52.052;4.242;2022-11-06T08:46:19;100941.94;;;10.46;100.00
36692;BME280;22678;52.052;4.242;2022-11-06T08:48:44;100948.91;;;10.53;100.00
36692;BME280;22678;52.052;4.242;2022-11-06T08:51:10;100932.28;;;10.48;100.00
36692;BME280;22678;52.052;4.242;2022-11-06T08:53:35;100944.50;;;10.58;100.00
36692;BME280;22678;52.052;4.242;2022-11-06T08:56:04;100948.84;;;10.62;100.00
36692;BME280;22678;52.052;4.242;2022-11-06T08:58:29;100951.47;;;10.65;100.00
36692;BME280;22678;52.052;4.242;2022-11-06T09:00:54;100938.31;;;10.65;100.00
36692;BME280;22678;52.052;4.242;2022-11-06T09:03:20;100896.38;;;10.48;100.00
36692;BME280;22678;52.052;4.242;2022-11-06T09:05:45;100901.63;;;10.47;100.00
36692;BME280;22678;52.052;4.242;2022-11-06T09:08:11;100934.72;;;10.76;100.00
36692;BME280;22678;52.052;4.242;2022-11-06T09:10:38;100916.38;;;10.69;100.00
36692;BME280;22678;52.052;4.242;2022-11-06T09:13:04;100918.94;;;10.76;100.00
36692;BME280;22678;52.052;4.242;2022-11-06T09:15:30;100915.41;;;10.80;100.00
36692;BME280;22678;52.052;4.242;2022-11-06T09:17:55;100923.28;;;10.83;100.00
36692;BME280;22678;52.052;4.242;2022-11-06T09:20:22;100925.81;;;10.92;100.00
36692;BME280;22678;52.052;4.242;2022-11-06T09:22:49;100924.06;;;10.94;100.00
36692;BME280;22678;52.052;4.242;2022-11-06T09:25:14;100917.94;;;10.92;100.00
36692;BME280;22678;52.052;4.242;2022-11-06T09:27:50;100913.50;;;10.99;100.00
36692;BME280;22678;52.052;4.242;2022-11-06T09:30:18;100911.72;;;10.99;100.00
36692;BME280;22678;52.052;4.242;2022-11-06T09:32:50;100920.47;;;11.04;100.00
36692;BME280;22678;52.052;4.242;2022-11-06T09:35:16;100919.56;;;11.09;100.00
36692;BME280;22678;52.052;4.242;2022-11-06T09:37:42;100909.88;;;11.12;100.00
36692;BME280;22678;52.052;4.242;2022-11-06T09:45:32;100897.47;;;11.25;99.95
36692;BME280;22678;52.052;4.242;2022-11-06T09:50:52;100893.94;;;11.26;99.71
36692;BME280;22678;52.052;4.242;2022-11-06T09:53:33;100888.66;;;11.26;99.66
36692;BME280;22678;52.052;4.242;2022-11-06T09:56:01;100892.16;;;11.28;99.30
36692;BME280;22678;52.052;4.242;2022-11-06T09:58:36;100887.75;;;11.29;99.17
36692;BME280;22678;52.052;4.242;2022-11-06T10:01:23;100867.63;;;11.23;98.78
36692;BME280;22678;52.052;4.242;2022-11-06T10:03:59;100879.88;;;11.29;98.81
36692;BME280;22678;52.052;4.242;2022-11-06T10:06:26;100876.38;;;11.28;98.63
36692;BME280;22678;52.052;4.242;2022-11-06T10:08:56;100870.28;;;11.23;98.51
36692;BME280;22678;52.052;4.242;2022-11-06T10:11:34;100866.75;;;11.24;98.46
36692;BME280;22678;52.052;4.242;2022-11-06T10:16:44;100867.59;;;11.28;98.34
36692;BME280;22678;52.052;4.242;2022-11-06T10:19:28;100861.44;;;11.29;98.29
36692;BME280;22678;52.052;4.242;2022-11-06T10:24:42;100858.81;;;11.27;98.13
36692;BME280;22678;52.052;4.242;2022-11-06T10:27:14;100840.47;;;11.21;98.29
36692;BME280;22678;52.052;4.242;2022-11-06T10:30:13;100848.28;;;11.27;98.27
36692;BME280;22678;52.052;4.242;2022-11-06T10:35:42;100843.09;;;11.21;98.18
36692;BME280;22678;52.052;4.242;2022-11-06T10:38:13;100841.28;;;11.26;97.97
36692;BME280;22678;52.052;4.242;2022-11-06T10:40:42;100831.66;;;11.25;98.09
36692;BME280;22678;52.052;4.242;2022-11-06T10:45:46;100835.16;;;11.24;98.17
36692;BME280;22678;52.052;4.242;2022-11-06T10:48:22;100824.69;;;11.21;98.45
36692;BME280;22678;52.052;4.242;2022-11-06T10:53:38;100832.56;;;11.21;98.66
36692;BME280;22678;52.052;4.242;2022-11-06T10:56:28;100814.16;;;11.19;99.14
36692;BME280;22678;52.052;4.242;2022-11-06T10:58:57;100801.06;;;11.15;99.62
36692;BME280;22678;52.052;4.242;2022-11-06T11:01:23;100796.69;;;11.12;99.66
36692;BME280;22678;52.052;4.242;2022-11-06T11:03:48;100802.81;;;11.14;99.61
36692;BME280;22678;52.052;4.242;2022-11-06T11:06:15;100795.91;;;11.07;100.00
36692;BME280;22678;52.052;4.242;2022-11-06T11:08:50;100800.22;;;11.11;100.00
36692;BME280;22678;52.052;4.242;2022-11-06T11:11:22;100804.59;;;11.11;100.00
36692;BME280;22678;52.052;4.242;2022-11-06T11:16:32;100775.00;;;10.92;100.00
36692;BME280;22678;52.052;4.242;2022-11-06T11:19:22;100806.41;;;11.05;100.00
36692;BME280;22678;52.052;4.242;2022-11-06T11:21:58;100788.97;;;10.95;100.00
36692;BME280;22678;52.052;4.242;2022-11-06T11:24:27;100792.44;;;11.00;100.00
36692;BME280;22678;52.052;4.242;2022-11-06T11:26:58;100780.16;;;10.99;100.00
36692;BME280;22678;52.052;4.242;2022-11-06T11:29:46;100772.22;;;11.02;100.00
36692;BME280;22678;52.052;4.242;2022-11-06T11:32:16;100767.03;;;10.96;100.00
36692;BME280;22678;52.052;4.242;2022-11-06T11:34:46;100757.34;;;11.03;100.00
36692;BME280;22678;52.052;4.242;2022-11-06T11:37:23;100715.44;;;10.83;100.00
36692;BME280;22678;52.052;4.242;2022-11-06T11:39:50;100755.56;;;11.03;100.00
36692;BME280;22678;52.052;4.242;2022-11-06T11:47:36;100744.16;;;11.04;100.00
36692;BME280;22678;52.052;4.242;2022-11-06T11:52:47;100717.94;;;10.97;100.00
36692;BME280;22678;52.052;4.242;2022-11-06T11:55:15;100713.47;;;11.03;100.00
36692;BME280;22678;52.052;4.242;2022-11-06T11:57:44;100716.97;;;11.02;100.00
36692;BME280;22678;52.052;4.242;2022-11-06T12:00:18;100703.88;;;10.98;100.00
36692;BME280;22678;52.052;4.242;2022-11-06T12:02:47;100723.00;;;11.12;100.00
36692;BME280;22678;52.052;4.242;2022-11-06T12:05:20;100708.16;;;11.07;100.00
36692;BME280;22678;52.052;4.242;2022-11-06T12:07:50;100701.97;;;11.11;100.00
36692;BME280;22678;52.052;4.242;2022-11-06T12:10:37;100702.75;;;11.16;100.00
36692;BME280;22678;52.052;4.242;2022-11-06T12:13:15;100700.16;;;11.17;100.00
36692;BME280;22678;52.052;4.242;2022-11-06T12:15:50;100683.50;;;11.14;100.00
36692;BME280;22678;52.052;4.242;2022-11-06T12:18:39;100675.56;;;11.17;100.00
36692;BME280;22678;52.052;4.242;2022-11-06T12:21:12;100672.88;;;11.20;100.00
36692;BME280;22678;52.052;4.242;2022-11-06T12:24:02;100669.31;;;11.26;100.00
36692;BME280;22678;52.052;4.242;2022-11-06T12:35:00;100664.13;;;11.19;100.00
36692;BME280;22678;52.052;4.242;2022-11-06T12:40:21;100657.09;;;11.20;100.00
36692;BME280;22678;52.052;4.242;2022-11-06T12:42:57;100660.66;;;11.19;100.00
36692;BME280;22678;52.052;4.242;2022-11-06T12:45:36;100653.69;;;11.13;100.00
36692;BME280;22678;52.052;4.242;2022-11-06T12:48:15;100648.41;;;11.15;100.00
36692;BME280;22678;52.052;4.242;2022-11-06T12:53:58;100638.00;;;11.05;100.00
36692;BME280;22678;52.052;4.242;2022-11-06T13:02:32;100637.88;;;11.15;100.00
36692;BME280;22678;52.052;4.242;2022-11-06T13:06:08;100642.38;;;11.07;100.00
36692;BME280;22678;52.052;4.242;2022-11-06T13:08:13;100639.66;;;11.13;100.00
36692;BME280;22678;52.052;4.242;2022-11-06T13:18:51;100642.38;;;11.07;100.00
36692;BME280;22678;52.052;4.242;2022-11-06T13:21:28;100570.09;;;10.68;100.00
36692;BME280;22678;52.052;4.242;2022-11-06T13:23:58;100611.97;;;10.84;100.00
36692;BME280;22678;52.052;4.242;2022-11-06T13:26:39;100638.06;;;10.99;100.00
36692;BME280;22678;52.052;4.242;2022-11-06T13:29:12;100622.34;;;10.96;100.00
36692;BME280;22678;52.052;4.242;2022-11-06T13:31:41;100624.91;;;10.99;100.00
36692;BME280;22678;52.052;4.242;2022-11-06T13:34:17;100567.41;;;10.72;100.00
36692;BME280;22678;52.052;4.242;2022-11-06T13:36:47;100578.00;;;10.67;100.00
36692;BME280;22678;52.052;4.242;2022-11-06T13:39:19;100571.00;;;10.66;100.00
36692;BME280;22678;52.052;4.242;2022-11-06T13:41:46;100625.88;;;10.92;100.00
36692;BME280;22678;52.052;4.242;2022-11-06T13:44:12;100605.78;;;10.90;100.00
36692;BME280;22678;52.052;4.242;2022-11-06T13:46:46;100597.03;;;10.86;100.00
36692;BME280;22678;52.052;4.242;2022-11-06T13:52:04;100588.41;;;10.76;100.00
36692;BME280;22678;52.052;4.242;2022-11-06T13:58:04;100587.44;;;10.82;100.00
36692;BME280;22678;52.052;4.242;2022-11-06T14:06:22;100576.25;;;10.67;100.00
36692;BME280;22678;52.052;4.242;2022-11-06T14:08:54;100570.94;;;10.72;100.00
36692;BME280;22678;52.052;4.242;2022-11-06T14:11:26;100579.72;;;10.69;100.00
36692;BME280;22678;52.052;4.242;2022-11-06T14:14:45;100548.38;;;10.52;100.00
36692;BME280;22678;52.052;4.242;2022-11-06T14:20:06;100528.38;;;10.41;100.00
36692;BME280;22678;52.052;4.242;2022-11-06T14:22:49;100530.28;;;10.26;98.86
36692;BME280;22678;52.052;4.242;2022-11-06T14:32:55;100524.19;;;10.21;98.39
36692;BME280;22678;52.052;4.242;2022-11-06T14:40:52;100511.13;;;10.15;98.44
36692;BME280;22678;52.052;4.242;2022-11-06T14:43:23;100505.03;;;10.10;98.68
36692;BME280;22678;52.052;4.242;2022-11-06T14:45:56;100493.69;;;10.08;98.71